Time;durP1;ratioP1;P1;durP2;ratioP2;P2;SDS_P1;SDS_P2;PMS_P1;PMS_P2;Temp;Humidity;BMP_temperature;BMP_pressure;BME280_temperature;BME280_humidity;BME280_pressure;Samples;Min_cycle;Max_cycle;Signal;HPM_P1;HPM_P2
2023/09/26 00:01:41;;;;;;;16.07;9.97;;;16.50;99.90;;;;;;5095550;28;20175;-69
2023/09/26 00:04:07;;;;;;;16.70;10.23;;;16.40;99.90;;;;;;5095366;28;20191;-70
2023/09/26 00:06:33;;;;;;;12.90;8.70;;;16.40;99.90;;;;;;5095435;28;20164;-70
2023/09/26 00:08:58;;;;;;;13.30;9.00;;;16.40;99.90;;;;;;5093742;28;20176;-69
2023/09/26 00:11:24;;;;;;;13.77;9.93;;;16.30;99.90;;;;;;5095371;28;20632;-70
2023/09/26 00:13:50;;;;;;;14.60;8.80;;;16.30;99.90;;;;;;5095075;28;20171;-71
2023/09/26 00:16:15;;;;;;;15.17;9.27;;;16.20;99.90;;;;;;5095306;28;20213;-70
2023/09/26 00:18:42;;;;;;;14.27;9.60;;;16.30;99.90;;;;;;5095081;28;20555;-70
2023/09/26 00:21:08;;;;;;;14.73;9.90;;;16.20;99.90;;;;;;5094953;28;20223;-70
2023/09/26 00:23:35;;;;;;;18.47;10.60;;;16.10;99.90;;;;;;5094690;28;20220;-70
2023/09/26 00:26:01;;;;;;;20.00;12.27;;;16.10;99.90;;;;;;5095083;28;20200;-69
2023/09/26 00:28:27;;;;;;;18.63;10.43;;;16.00;99.90;;;;;;5094761;28;20673;-70
2023/09/26 00:30:56;;;;;;;15.63;9.73;;;16.00;99.90;;;;;;5095031;28;20313;-70
2023/09/26 00:33:22;;;;;;;15.03;9.63;;;16.00;99.90;;;;;;5094932;28;20183;-69
2023/09/26 00:35:47;;;;;;;16.27;9.17;;;16.10;99.90;;;;;;5095034;28;20168;-69
2023/09/26 00:38:13;;;;;;;14.47;9.57;;;16.20;99.90;;;;;;5094437;28;20504;-71
2023/09/26 00:40:42;;;;;;;14.17;9.20;;;16.20;99.90;;;;;;5094836;28;20240;-69
2023/09/26 00:43:08;;;;;;;15.43;9.80;;;16.10;99.90;;;;;;5093508;28;20534;-69
2023/09/26 00:45:35;;;;;;;11.80;9.13;;;16.20;99.90;;;;;;5094642;28;20203;-69
2023/09/26 00:48:03;;;;;;;14.10;8.87;;;16.10;99.90;;;;;;5093401;28;20172;-69
2023/09/26 00:50:29;;;;;;;13.43;9.23;;;16.00;99.90;;;;;;5094448;28;20164;-69
2023/09/26 00:52:55;;;;;;;11.53;9.43;;;16.00;99.90;;;;;;5094225;28;20172;-70
2023/09/26 00:55:23;;;;;;;13.67;9.17;;;15.90;99.90;;;;;;5094594;28;20199;-69
2023/09/26 00:57:50;;;;;;;13.23;9.07;;;15.90;99.90;;;;;;5094344;28;20684;-70
2023/09/26 01:00:19;;;;;;;10.30;9.27;;;15.80;99.90;;;;;;5094593;28;20195;-69
2023/09/26 01:02:44;;;;;;;13.27;9.47;;;15.70;99.90;;;;;;5093775;28;20160;-69
2023/09/26 01:05:10;;;;;;;13.03;8.83;;;15.60;99.90;;;;;;5094189;28;20195;-70
2023/09/26 01:07:37;;;;;;;12.00;8.77;;;15.60;99.90;;;;;;5093883;28;20612;-70
2023/09/26 01:10:04;;;;;;;15.53;8.80;;;15.50;99.90;;;;;;5094180;28;20168;-70
2023/09/26 01:12:31;;;;;;;15.93;9.13;;;15.40;99.90;;;;;;5094207;28;20208;-70
2023/09/26 01:14:56;;;;;;;12.80;8.73;;;15.50;99.90;;;;;;5094143;28;20247;-69
2023/09/26 01:17:22;;;;;;;17.07;9.27;;;15.40;99.90;;;;;;5094106;28;20251;-70
2023/09/26 01:19:47;;;;;;;11.97;8.50;;;15.50;99.90;;;;;;5094030;28;20180;-70
2023/09/26 01:22:16;;;;;;;11.53;8.40;;;15.40;99.90;;;;;;5093354;28;20794;-70
2023/09/26 01:24:42;;;;;;;9.63;8.10;;;15.40;99.90;;;;;;5093689;28;20218;-70
2023/09/26 01:27:07;;;;;;;10.63;8.17;;;15.30;99.90;;;;;;5093977;28;20168;-70
2023/09/26 01:29:33;;;;;;;11.00;8.03;;;15.30;99.90;;;;;;5094032;28;20661;-70
2023/09/26 01:31:59;;;;;;;9.07;8.00;;;15.30;99.90;;;;;;5093844;28;20254;-70
2023/09/26 01:34:24;;;;;;;13.03;7.93;;;15.40;99.90;;;;;;5092344;28;20168;-69
2023/09/26 01:36:50;;;;;;;9.23;8.07;;;15.50;99.90;;;;;;5093711;28;20609;-70
2023/09/26 01:39:15;;;;;;;12.33;7.90;;;15.60;99.90;;;;;;5093717;28;20167;-70
2023/09/26 01:41:41;;;;;;;13.43;8.87;;;15.70;99.90;;;;;;5093707;28;20176;-70
2023/09/26 01:44:06;;;;;;;13.07;8.97;;;15.70;99.90;;;;;;5093536;28;20242;-70
2023/09/26 01:46:32;;;;;;;14.27;9.00;;;15.80;99.90;;;;;;5093669;28;20168;-70
2023/09/26 01:48:58;;;;;;;13.77;9.97;;;15.80;99.90;;;;;;5093199;28;20641;-70
2023/09/26 01:51:24;;;;;;;11.93;8.63;;;15.80;99.90;;;;;;5093496;28;20164;-70
2023/09/26 01:53:49;;;;;;;12.77;8.33;;;15.80;99.90;;;;;;5093845;28;20756;-70
2023/09/26 01:56:15;;;;;;;12.77;8.40;;;15.80;99.90;;;;;;5093450;28;20176;-70
2023/09/26 01:58:41;;;;;;;13.83;8.97;;;15.90;99.90;;;;;;5093466;28;20164;-69
2023/09/26 02:01:06;;;;;;;14.13;8.50;;;15.90;99.90;;;;;;5093435;28;20198;-69
2023/09/26 02:03:33;;;;;;;14.00;8.87;;;15.90;99.90;;;;;;5092978;28;20725;-70
2023/09/26 02:05:58;;;;;;;12.40;9.03;;;16.00;99.90;;;;;;5093331;28;20176;-70
2023/09/26 02:08:24;;;;;;;10.17;8.60;;;15.90;99.90;;;;;;5093153;28;20160;-70
2023/09/26 02:10:50;;;;;;;10.33;8.10;;;16.00;99.90;;;;;;5093500;28;20171;-70
2023/09/26 02:13:16;;;;;;;14.03;8.93;;;16.00;99.90;;;;;;5093187;28;20491;-70
2023/09/26 02:15:41;;;;;;;14.40;8.67;;;15.90;99.90;;;;;;5093358;28;20179;-70
2023/09/26 02:18:07;;;;;;;9.40;7.27;;;16.00;99.90;;;;;;5091471;28;20167;-70
2023/09/26 02:20:33;;;;;;;13.30;8.60;;;16.10;99.90;;;;;;5093059;28;20224;-70
2023/09/26 02:22:59;;;;;;;14.47;8.50;;;16.10;99.90;;;;;;5093113;28;20519;-69
2023/09/26 02:25:25;;;;;;;7.20;6.40;;;16.10;99.90;;;;;;5093273;28;20221;-70
2023/09/26 02:27:51;;;;;;;10.93;8.43;;;16.10;99.90;;;;;;5093174;28;20185;-69
2023/09/26 02:30:19;;;;;;;17.67;8.63;;;16.30;99.90;;;;;;5093242;28;20255;-69
2023/09/26 02:32:45;;;;;;;10.83;8.40;;;16.20;99.90;;;;;;5092873;28;20191;-69
2023/09/26 02:35:13;;;;;;;12.47;7.90;;;16.20;99.90;;;;;;5093207;28;20196;-69
2023/09/26 02:37:39;;;;;;;9.17;7.43;;;16.20;99.90;;;;;;5092795;28;20633;-69
2023/09/26 02:40:09;;;;;;;10.83;7.87;;;16.10;99.90;;;;;;5092824;28;20198;-69
2023/09/26 02:42:39;;;;;;;9.90;7.53;;;15.90;99.90;;;;;;5093252;28;20179;-69
2023/09/26 02:45:05;;;;;;;12.43;8.73;;;15.80;99.90;;;;;;5093078;28;20207;-69
2023/09/26 02:47:31;;;;;;;13.17;8.10;;;15.70;99.90;;;;;;5092458;28;20175;-69
2023/09/26 02:49:57;;;;;;;11.23;8.17;;;15.60;99.90;;;;;;5092854;28;20176;-69
2023/09/26 02:52:24;;;;;;;11.33;8.07;;;15.60;99.90;;;;;;5092878;28;20172;-69
2023/09/26 02:54:50;;;;;;;12.73;8.07;;;15.70;99.90;;;;;;5092708;28;20172;-69
2023/09/26 02:57:15;;;;;;;13.53;8.30;;;15.70;99.90;;;;;;5092960;28;20301;-69
2023/09/26 02:59:41;;;;;;;12.00;7.70;;;15.70;99.90;;;;;;5092925;28;20180;-69
2023/09/26 03:02:07;;;;;;;12.13;7.80;;;15.60;99.90;;;;;;5092595;28;20187;-69
2023/09/26 03:04:33;;;;;;;14.47;7.73;;;15.60;99.90;;;;;;5092591;28;20226;-69
2023/09/26 03:06:58;;;;;;;13.87;7.47;;;15.70;99.90;;;;;;5092683;28;20204;-69
2023/09/26 03:09:24;;;;;;;11.00;7.73;;;15.70;99.90;;;;;;5092986;28;20187;-69
2023/09/26 03:11:50;;;;;;;13.93;7.70;;;15.70;99.90;;;;;;5092732;28;20180;-69
2023/09/26 03:14:17;;;;;;;13.87;9.20;;;15.80;99.90;;;;;;5092767;28;20662;-69
2023/09/26 03:16:42;;;;;;;13.23;8.30;;;15.70;99.90;;;;;;5090897;28;20226;-69
2023/09/26 03:19:09;;;;;;;11.33;7.87;;;15.70;99.90;;;;;;5092057;28;20188;-69
2023/09/26 03:21:34;;;;;;;13.83;8.37;;;15.60;99.90;;;;;;5092274;28;20234;-69
2023/09/26 03:24:00;;;;;;;12.00;8.30;;;15.60;99.90;;;;;;5092593;28;20195;-68
2023/09/26 03:26:26;;;;;;;13.70;8.23;;;15.40;99.90;;;;;;5096213;28;20168;-69
2023/09/26 03:28:52;;;;;;;13.37;8.07;;;15.30;99.90;;;;;;5095997;28;20179;-71
2023/09/26 03:31:17;;;;;;;13.40;8.80;;;15.20;99.90;;;;;;5095648;28;20634;-69
2023/09/26 03:33:43;;;;;;;14.90;8.30;;;15.20;99.90;;;;;;5095862;28;20172;-70
2023/09/26 03:36:08;;;;;;;14.87;8.60;;;15.20;99.90;;;;;;5095385;28;20164;-70
2023/09/26 03:38:34;;;;;;;12.43;7.77;;;15.20;99.90;;;;;;5095789;28;20515;-69
2023/09/26 03:41:01;;;;;;;10.97;8.10;;;15.20;99.90;;;;;;5095506;28;20263;-68
2023/09/26 03:43:27;;;;;;;12.50;7.90;;;15.20;99.90;;;;;;5096001;28;20549;-69
2023/09/26 03:46:13;;;;;;;11.57;8.17;;;15.20;99.90;;;;;;5095245;28;20317;-69
2023/09/26 03:48:38;;;;;;;12.13;7.90;;;15.30;99.90;;;;;;5094898;28;20680;-69
2023/09/26 03:51:11;;;;;;;15.77;8.67;;;15.30;99.90;;;;;;5095695;28;20233;-69
2023/09/26 03:53:38;;;;;;;15.87;9.33;;;15.40;99.90;;;;;;5095329;28;20176;-68
2023/09/26 03:56:04;;;;;;;14.27;9.03;;;15.50;99.90;;;;;;5094891;28;20175;-70
2023/09/26 03:58:31;;;;;;;14.53;8.43;;;15.50;99.90;;;;;;5095345;28;20179;-69
2023/09/26 04:01:16;;;;;;;12.20;8.30;;;15.40;99.90;;;;;;5095031;28;20180;-69
2023/09/26 04:03:49;;;;;;;11.90;7.77;;;15.40;99.90;;;;;;5095132;28;20164;-69
2023/09/26 04:06:15;;;;;;;14.53;8.97;;;15.30;99.90;;;;;;5095069;28;20538;-69
2023/09/26 04:08:41;;;;;;;15.70;8.53;;;15.30;99.90;;;;;;5095248;28;20175;-70
2023/09/26 04:11:17;;;;;;;18.23;9.40;;;15.20;99.90;;;;;;5094934;28;20179;-69
2023/09/26 04:13:43;;;;;;;11.90;8.77;;;15.30;99.90;;;;;;5094457;28;20175;-69
2023/09/26 04:16:12;;;;;;;14.80;8.30;;;15.30;99.90;;;;;;5094782;28;20172;-69
2023/09/26 04:18:38;;;;;;;14.60;8.17;;;15.40;99.90;;;;;;5094727;28;20202;-69
2023/09/26 04:21:07;;;;;;;20.40;8.67;;;15.40;99.90;;;;;;5094700;28;20215;-69
2023/09/26 04:23:33;;;;;;;19.33;9.73;;;15.40;99.90;;;;;;5094554;28;20480;-68
2023/09/26 04:25:58;;;;;;;18.47;9.20;;;15.40;99.90;;;;;;5094645;28;20172;-70
2023/09/26 04:28:24;;;;;;;18.17;9.00;;;15.40;99.90;;;;;;5094382;28;20179;-69
2023/09/26 04:30:50;;;;;;;17.23;9.33;;;15.30;99.90;;;;;;5094681;28;20217;-69
2023/09/26 04:33:16;;;;;;;13.23;8.57;;;15.30;99.90;;;;;;5094453;28;20168;-69
2023/09/26 04:35:42;;;;;;;14.47;8.40;;;15.20;99.90;;;;;;5093435;28;20237;-69
2023/09/26 04:38:07;;;;;;;15.70;8.47;;;15.30;99.90;;;;;;5094345;28;20183;-71
2023/09/26 04:40:33;;;;;;;21.53;9.77;;;15.30;99.90;;;;;;5093716;28;20263;-69
2023/09/26 04:43:02;;;;;;;18.83;8.83;;;15.20;99.90;;;;;;5094082;28;20189;-69
2023/09/26 04:45:31;;;;;;;14.03;9.10;;;15.20;99.90;;;;;;5092781;28;20299;-70
2023/09/26 04:47:58;;;;;;;15.33;9.07;;;15.10;99.90;;;;;;5093690;28;20183;-69
2023/09/26 04:50:25;;;;;;;17.00;9.80;;;15.00;99.90;;;;;;5092976;28;20175;-68
2023/09/26 04:52:50;;;;;;;17.20;9.13;;;15.00;99.90;;;;;;5093573;28;20170;-69
2023/09/26 04:55:16;;;;;;;17.67;9.47;;;14.90;99.90;;;;;;5093769;28;20259;-69
2023/09/26 04:57:42;;;;;;;14.67;9.33;;;15.00;99.90;;;;;;5093219;28;20168;-70
2023/09/26 05:00:08;;;;;;;12.40;8.43;;;15.00;99.90;;;;;;5093920;28;20192;-69
2023/09/26 05:02:34;;;;;;;14.97;8.90;;;14.90;99.90;;;;;;5093800;28;20172;-68
2023/09/26 05:05:01;;;;;;;13.43;8.93;;;14.90;99.90;;;;;;5093205;28;20226;-71
2023/09/26 05:07:26;;;;;;;23.57;10.23;;;14.90;99.90;;;;;;5093726;28;20168;-69
2023/09/26 05:09:52;;;;;;;18.13;8.93;;;14.90;99.90;;;;;;5093232;28;20735;-69
2023/09/26 05:12:17;;;;;;;17.03;9.77;;;15.00;99.90;;;;;;5092925;28;20164;-68
2023/09/26 05:14:43;;;;;;;20.37;9.17;;;15.00;99.90;;;;;;5093014;28;20577;-70
2023/09/26 05:17:08;;;;;;;21.23;9.47;;;15.00;99.90;;;;;;5093166;28;20164;-70
2023/09/26 05:19:34;;;;;;;18.20;8.83;;;14.90;99.90;;;;;;5093307;28;20647;-70
2023/09/26 05:22:00;;;;;;;17.77;8.70;;;14.80;99.90;;;;;;5092888;28;20229;-70
2023/09/26 05:24:25;;;;;;;15.87;9.57;;;14.80;99.90;;;;;;5093372;28;20344;-70
2023/09/26 05:26:52;;;;;;;17.90;9.13;;;14.80;99.90;;;;;;5092702;28;20618;-70
2023/09/26 05:29:17;;;;;;;13.63;8.70;;;14.90;99.90;;;;;;5091559;28;20203;-69
2023/09/26 05:31:43;;;;;;;17.77;8.93;;;14.90;99.90;;;;;;5091671;28;20218;-70
2023/09/26 05:34:09;;;;;;;13.77;9.23;;;15.00;99.90;;;;;;5093054;28;20193;-70
2023/09/26 05:36:34;;;;;;;17.03;9.10;;;15.00;99.90;;;;;;5092106;28;20675;-70
2023/09/26 05:39:00;;;;;;;26.40;10.53;;;15.10;99.90;;;;;;5092996;28;20182;-70
2023/09/26 05:41:25;;;;;;;22.63;10.17;;;15.10;99.90;;;;;;5091496;28;20228;-69
2023/09/26 05:43:51;;;;;;;20.53;8.97;;;15.00;99.90;;;;;;5092774;28;20191;-70
2023/09/26 05:46:17;;;;;;;20.27;9.07;;;15.00;99.90;;;;;;5091678;28;20400;-70
2023/09/26 05:48:42;;;;;;;18.43;9.40;;;15.00;99.90;;;;;;5092241;28;20172;-70
2023/09/26 05:51:08;;;;;;;20.23;9.23;;;15.10;99.90;;;;;;5092693;28;20168;-70
2023/09/26 05:53:33;;;;;;;24.00;10.20;;;15.20;99.90;;;;;;5092444;28;20243;-70
2023/09/26 05:55:59;;;;;;;23.93;9.50;;;15.20;99.90;;;;;;5092682;28;20160;-70
2023/09/26 05:58:25;;;;;;;24.23;10.43;;;15.30;99.90;;;;;;5092067;28;20636;-70
2023/09/26 06:00:52;;;;;;;22.83;8.97;;;15.50;99.90;;;;;;5092030;28;20171;-71
2023/09/26 06:03:17;;;;;;;21.30;9.10;;;15.70;99.90;;;;;;5092208;28;20190;-70
2023/09/26 06:05:43;;;;;;;23.03;9.20;;;15.80;99.90;;;;;;5091844;28;20207;-71
2023/09/26 06:08:09;;;;;;;24.17;9.67;;;15.80;99.90;;;;;;5092369;28;20507;-71
2023/09/26 06:10:35;;;;;;;17.90;9.07;;;16.10;99.90;;;;;;5091160;28;20186;-72
2023/09/26 06:13:01;;;;;;;18.87;9.37;;;16.20;99.90;;;;;;5091724;28;20168;-70
2023/09/26 06:15:27;;;;;;;17.70;8.93;;;16.50;99.90;;;;;;5091623;28;20247;-71
2023/09/26 06:17:59;;;;;;;15.10;9.67;;;16.80;99.90;;;;;;5091509;28;20224;-70
2023/09/26 06:20:28;;;;;;;19.73;8.90;;;16.90;99.90;;;;;;5091224;28;20319;-71
2023/09/26 06:22:57;;;;;;;21.40;9.13;;;17.10;99.90;;;;;;5091753;28;20168;-71
2023/09/26 06:25:23;;;;;;;15.00;8.38;;;17.10;99.90;;;;;;5091664;28;20215;-70
2023/09/26 06:27:50;;;;;;;19.13;8.30;;;17.20;99.90;;;;;;5091865;28;20679;-72
2023/09/26 06:30:15;;;;;;;23.67;8.60;;;17.50;99.90;;;;;;5092425;28;20183;-71
2023/09/26 06:32:41;;;;;;;18.50;7.85;;;17.80;99.90;;;;;;5091352;28;20172;-71
2023/09/26 06:35:07;;;;;;;34.38;9.23;;;18.00;99.90;;;;;;5091369;28;20526;-71
2023/09/26 06:37:33;;;;;;;18.30;9.48;;;18.20;99.90;;;;;;5091927;28;20213;-71
2023/09/26 06:40:03;;;;;;;21.17;8.85;;;18.50;99.90;;;;;;5091503;28;20260;-70
2023/09/26 06:42:30;;;;;;;25.73;9.45;;;18.80;99.90;;;;;;5081312;28;20203;-72
2023/09/26 06:44:55;;;;;;;24.48;10.05;;;19.10;97.10;;;;;;5082502;28;20253;-71
2023/09/26 06:47:21;;;;;;;24.42;9.45;;;19.30;91.80;;;;;;5090222;28;20172;-71
2023/09/26 06:49:47;;;;;;;21.00;8.65;;;19.50;74.80;;;;;;5076203;28;20729;-72
2023/09/26 06:52:13;;;;;;;23.85;9.57;;;19.40;69.90;;;;;;5089603;28;20176;-71
2023/09/26 06:54:39;;;;;;;22.48;9.55;;;19.50;69.60;;;;;;5079767;28;20255;-71
2023/09/26 06:57:04;;;;;;;22.67;8.88;;;19.50;60.70;;;;;;5080036;28;20774;-72
2023/09/26 06:59:30;;;;;;;23.58;9.15;;;19.80;60.20;;;;;;5089998;28;20175;-72
2023/09/26 07:01:55;;;;;;;22.85;8.65;;;20.10;51.40;;;;;;5075325;28;20196;-71
2023/09/26 07:04:21;;;;;;;27.33;10.05;;;20.70;41.60;;;;;;5075147;28;20253;-71
2023/09/26 07:06:46;;;;;;;24.15;7.88;;;21.00;21.80;;;;;;5080326;28;20592;-71
2023/09/26 07:09:16;;;;;;;22.23;8.70;;;21.60;9.50;;;;;;5074129;28;20184;-70
2023/09/26 07:11:42;;;;;;;26.90;9.98;;;22.60;1.00;;;;;;5080441;28;20191;-72
2023/09/26 07:14:07;;;;;;;29.63;8.93;;;23.70;1.00;;;;;;5085282;28;20180;-72
2023/09/26 07:16:33;;;;;;;27.65;7.57;;;24.20;1.00;;;;;;5077603;28;20257;-71
2023/09/26 07:19:00;;;;;;;14.65;6.53;;;24.80;1.00;;;;;;5086111;28;20203;-72
2023/09/26 07:21:25;;;;;;;15.82;7.47;;;24.90;1.00;;;;;;5083117;28;20264;-73
2023/09/26 07:23:51;;;;;;;16.67;6.15;;;24.70;1.00;;;;;;5094215;28;20176;-73
2023/09/26 07:26:18;;;;;;;13.55;6.35;;;24.70;99.90;;;;;;5083374;28;20521;-72
2023/09/26 07:28:46;;;;;;;18.23;7.93;;;24.00;1.00;;;;;;5085760;28;20223;-71
2023/09/26 07:31:13;;;;;;;15.68;8.27;;;24.30;1.00;;;;;;5084759;28;20548;-72
2023/09/26 07:33:39;;;;;;;13.52;7.85;;;24.30;99.90;;;;;;5081364;28;20279;-72
2023/09/26 07:36:06;;;;;;;14.40;6.03;;;24.40;1.00;;;;;;5074145;28;20204;-75
2023/09/26 07:38:32;;;;;;;11.65;5.38;;;25.10;99.90;;;;;;5075856;28;20192;-70
2023/09/26 07:40:59;;;;;;;10.80;5.80;;;25.90;1.00;;;;;;5075589;28;20187;-69
2023/09/26 07:43:29;;;;;;;13.38;5.47;;;26.20;99.90;;;;;;5088329;28;20351;-71
2023/09/26 07:45:57;;;;;;;8.88;4.18;;;25.60;1.00;;;;;;5081919;28;20628;-72
2023/09/26 07:48:24;;;;;;;10.52;5.00;;;25.00;1.00;;;;;;5073972;28;20243;-73
2023/09/26 07:50:49;;;;;;;10.90;4.93;;;25.00;99.90;;;;;;5081906;28;20287;-71
2023/09/26 07:53:15;;;;;;;8.63;3.65;;;25.50;99.90;;;;;;5074029;28;20683;-70
2023/09/26 07:55:41;;;;;;;6.68;3.92;;;24.70;1.00;;;;;;5092246;28;20207;-72
2023/09/26 07:58:07;;;;;;;6.20;3.40;;;24.60;99.90;;;;;;5094069;28;20172;-71
2023/09/26 08:00:33;;;;;;;7.28;3.72;;;24.30;1.00;;;;;;5088165;28;20212;-70
2023/09/26 08:03:01;;;;;;;7.75;3.33;;;24.00;1.00;;;;;;5074198;28;20188;-70
2023/09/26 08:05:26;;;;;;;7.90;3.00;;;23.80;1.00;;;;;;5074318;28;20208;-72
2023/09/26 08:07:52;;;;;;;5.90;2.88;;;23.30;99.90;;;;;;5073592;28;20168;-71
2023/09/26 08:10:17;;;;;;;8.13;3.58;;;23.50;1.00;;;;;;5080630;28;20184;-73
2023/09/26 08:12:43;;;;;;;4.53;3.13;;;23.10;99.90;;;;;;5093377;28;20164;-72
2023/09/26 08:15:09;;;;;;;7.95;3.45;;;23.00;99.90;;;;;;5076280;28;20181;-69
2023/09/26 08:17:35;;;;;;;7.25;3.38;;;23.30;4.20;;;;;;5073569;28;20181;-72
2023/09/26 08:20:00;;;;;;;5.35;3.13;;;23.90;6.20;;;;;;5074299;28;20628;-72
2023/09/26 08:22:26;;;;;;;6.88;3.63;;;24.80;99.90;;;;;;5086040;28;20180;-76
2023/09/26 08:24:52;;;;;;;8.95;3.83;;;25.20;1.00;;;;;;5080079;28;20212;-73
2023/09/26 08:27:17;;;;;;;6.28;3.45;;;25.60;1.00;;;;;;5080957;28;20943;-76
2023/09/26 08:29:43;;;;;;;11.48;4.15;;;25.70;99.90;;;;;;5080436;28;20259;-76
2023/09/26 08:32:09;;;;;;;10.25;5.90;;;25.80;1.00;;;;;;5083369;28;20685;-74
2023/09/26 08:34:35;;;;;;;11.00;5.45;;;25.80;1.00;;;;;;5111059;28;20568;-77
2023/09/26 08:37:01;;;;;;;12.57;4.82;;;25.60;1.00;;;;;;5078664;28;20283;-75
2023/09/26 08:39:27;;;;;;;8.75;3.97;;;25.80;1.00;;;;;;5073074;28;20569;-75
2023/09/26 08:41:53;;;;;;;10.63;3.65;;;25.90;1.00;;;;;;5071957;28;20263;-73
2023/09/26 08:44:19;;;;;;;9.40;3.95;;;26.20;99.90;;;;;;5099645;28;20261;-74
2023/09/26 08:46:45;;;;;;;16.45;8.52;;;26.10;99.90;;;;;;5082847;28;20176;-71
2023/09/26 08:49:11;;;;;;;13.65;4.93;;;25.50;1.00;;;;;;5090512;28;20176;-74
2023/09/26 08:51:37;;;;;;;7.50;4.32;;;25.30;1.00;;;;;;5091962;28;20241;-79
2023/09/26 08:54:03;;;;;;;9.38;5.45;;;25.50;1.00;;;;;;5093156;28;20179;-73
2023/09/26 08:56:33;;;;;;;17.08;4.80;;;25.30;1.00;;;;;;5073940;28;20188;-73
2023/09/26 08:59:02;;;;;;;8.05;3.47;;;25.50;1.00;;;;;;5084312;28;20172;-74
2023/09/26 09:01:28;;;;;;;10.20;4.63;;;25.90;99.90;;;;;;5094983;28;20245;-74
2023/09/26 09:03:54;;;;;;;14.93;5.53;;;26.80;99.90;;;;;;5074660;28;20186;-74
2023/09/26 09:06:20;;;;;;;9.90;4.35;;;26.90;45.50;;;;;;5093131;28;20543;-75
2023/09/26 09:08:45;;;;;;;16.48;5.18;;;27.30;99.90;;;;;;5092990;28;20164;-73
2023/09/26 09:11:12;;;;;;;11.80;4.60;;;27.40;99.90;;;;;;5093296;28;20168;-76
2023/09/26 09:13:39;;;;;;;12.00;4.40;;;27.90;41.40;;;;;;5090799;28;20172;-74
2023/09/26 09:16:09;;;;;;;12.85;4.50;;;28.30;99.90;;;;;;5073981;28;20603;-74
2023/09/26 09:18:39;;;;;;;12.57;4.15;;;28.60;99.90;;;;;;5072000;28;20231;-74
2023/09/26 09:21:20;;;;;;;12.52;3.70;;;28.30;1.00;;;;;;5072761;28;20213;-74
2023/09/26 09:23:47;;;;;;;13.07;5.13;;;27.90;99.90;;;;;;5071806;28;20168;-75
2023/09/26 09:26:12;;;;;;;13.40;4.80;;;28.10;99.90;;;;;;5072431;28;20636;-76
2023/09/26 09:28:38;;;;;;;12.30;3.67;;;28.20;1.00;;;;;;5073336;28;20177;-74
2023/09/26 09:31:03;;;;;;;6.22;2.85;;;28.20;99.90;;;;;;5091120;28;20168;-73
2023/09/26 09:33:31;;;;;;;8.30;3.20;;;28.60;99.90;;;;;;5092554;28;20720;-73
2023/09/26 09:35:57;;;;;;;8.32;2.90;;;29.10;99.90;;;;;;5091372;28;20187;-72
2023/09/26 09:38:23;;;;;;;4.55;3.10;;;28.80;1.00;;;;;;5092114;28;20179;-75
2023/09/26 09:40:49;;;;;;;12.18;3.53;;;28.70;99.90;;;;;;5092704;28;20183;-73
2023/09/26 09:43:14;;;;;;;4.65;3.10;;;28.10;99.90;;;;;;5084441;28;20655;-72
2023/09/26 09:45:41;;;;;;;6.65;3.10;;;27.10;99.90;;;;;;5082270;28;20207;-74
2023/09/26 09:48:09;;;;;;;4.20;2.95;;;26.40;7.80;;;;;;5089143;28;20179;-73
2023/09/26 09:50:39;;;;;;;7.13;3.10;;;26.40;1.00;;;;;;5092224;28;20204;-75
2023/09/26 09:53:05;;;;;;;8.15;2.85;;;26.10;99.90;;;;;;5092008;28;20195;-71
2023/09/26 09:55:39;;;;;;;4.90;2.78;;;25.90;1.00;;;;;;5092192;28;20603;-72
2023/09/26 09:58:11;;;;;;;4.60;3.28;;;26.10;99.90;;;;;;5091443;28;20168;-75
2023/09/26 10:00:37;;;;;;;9.48;4.20;;;25.70;1.00;;;;;;5092263;28;20156;-74
2023/09/26 10:03:04;;;;;;;8.55;3.17;;;25.60;99.90;;;;;;5090236;28;20267;-72
2023/09/26 10:05:31;;;;;;;3.08;2.80;;;25.40;1.00;;;;;;5091880;28;20200;-73
2023/09/26 10:08:01;;;;;;;4.43;3.08;;;25.40;5.40;;;;;;5093340;28;20172;-73
2023/09/26 10:10:28;;;;;;;3.97;2.90;;;24.90;1.00;;;;;;5112541;28;20159;-71
2023/09/26 10:12:54;;;;;;;5.45;3.03;;;24.80;99.90;;;;;;5111537;28;20676;-72
2023/09/26 10:15:20;;;;;;;4.47;2.90;;;24.80;1.00;;;;;;5112609;28;20182;-72
2023/09/26 10:17:48;;;;;;;3.80;3.00;;;24.60;1.00;;;;;;5111774;28;20771;-72
2023/09/26 10:20:15;;;;;;;9.05;3.47;;;24.40;99.90;;;;;;5104620;28;20235;-72
2023/09/26 10:22:44;;;;;;;8.27;5.25;;;24.80;99.90;;;;;;5092326;28;20496;-73
2023/09/26 10:25:23;;;;;;;4.13;3.72;;;25.70;99.90;;;;;;5086884;28;20258;-76
2023/09/26 10:27:50;;;;;;;7.90;4.13;;;26.50;1.00;;;;;;5092003;28;20179;-74
2023/09/26 10:30:18;;;;;;;6.85;3.75;;;27.40;1.00;;;;;;5092561;28;20180;-73
2023/09/26 10:32:44;;;;;;;4.22;3.08;;;27.60;98.40;;;;;;5089860;28;20190;-74
2023/09/26 10:35:13;;;;;;;4.60;3.28;;;27.60;1.00;;;;;;5092747;28;20180;-74
2023/09/26 10:37:40;;;;;;;8.35;3.70;;;27.20;99.90;;;;;;5093104;28;20538;-73
2023/09/26 10:40:10;;;;;;;6.53;3.50;;;26.20;99.90;;;;;;5087206;28;20184;-72
2023/09/26 10:42:41;;;;;;;9.07;3.85;;;26.40;99.90;;;;;;5081650;28;20176;-73
2023/09/26 10:45:07;;;;;;;6.13;3.38;;;26.60;99.90;;;;;;5075214;28;20730;-74
2023/09/26 10:47:36;;;;;;;3.78;3.38;;;26.60;1.00;;;;;;5074801;28;20185;-72
2023/09/26 10:50:03;;;;;;;3.90;3.45;;;26.20;99.90;;;;;;5075354;28;20573;-72
2023/09/26 10:52:29;;;;;;;4.30;3.17;;;26.10;1.00;;;;;;5087132;28;20180;-73
2023/09/26 10:54:55;;;;;;;4.10;3.42;;;25.70;1.00;;;;;;5081716;28;20181;-73
2023/09/26 10:57:21;;;;;;;5.35;3.30;;;25.30;1.00;;;;;;5081470;28;20176;-71
2023/09/26 10:59:49;;;;;;;5.60;3.50;;;25.50;1.00;;;;;;5086261;28;20302;-71
2023/09/26 11:02:15;;;;;;;6.20;3.40;;;26.40;1.00;;;;;;5084173;28;20708;-71
2023/09/26 11:04:41;;;;;;;9.63;3.90;;;26.70;1.00;;;;;;5077615;28;20207;-74
2023/09/26 11:07:06;;;;;;;6.10;3.33;;;27.00;1.00;;;;;;5074181;28;20195;-71
2023/09/26 11:09:38;;;;;;;10.60;4.75;;;26.80;99.90;;;;;;5077731;28;20173;-73
2023/09/26 11:12:04;;;;;;;5.88;3.40;;;26.60;1.00;;;;;;5075074;28;20315;-72
2023/09/26 11:14:30;;;;;;;5.57;3.00;;;26.40;1.00;;;;;;5074666;28;20208;-72
2023/09/26 11:16:55;;;;;;;8.60;3.58;;;26.60;40.50;;;;;;5077280;28;20633;-73
2023/09/26 11:19:26;;;;;;;3.20;2.90;;;26.50;1.00;;;;;;5084817;28;20602;-72
2023/09/26 11:21:54;;;;;;;3.90;2.60;;;26.30;1.00;;;;;;5094140;28;20216;-73
2023/09/26 11:24:21;;;;;;;4.32;3.10;;;26.20;99.90;;;;;;5093706;28;20697;-75
2023/09/26 11:26:48;;;;;;;3.53;2.80;;;25.80;1.00;;;;;;5094328;28;20165;-73
2023/09/26 11:29:16;;;;;;;5.65;3.00;;;26.10;1.00;;;;;;5094562;28;20186;-74
2023/09/26 11:31:43;;;;;;;5.90;3.10;;;26.20;1.00;;;;;;5094643;28;20202;-73
2023/09/26 11:34:09;;;;;;;7.03;2.67;;;25.90;99.90;;;;;;5094663;28;20168;-73
2023/09/26 11:36:34;;;;;;;9.73;3.00;;;25.50;1.00;;;;;;5094079;28;20252;-75
2023/09/26 11:39:00;;;;;;;5.90;3.17;;;25.60;99.90;;;;;;5094113;28;20529;-75
2023/09/26 11:41:26;;;;;;;10.52;3.20;;;25.90;99.90;;;;;;5095328;28;20156;-73
2023/09/26 11:43:52;;;;;;;8.20;2.80;;;25.80;1.00;;;;;;5095079;28;20217;-73
2023/09/26 11:46:19;;;;;;;7.05;2.88;;;25.80;99.90;;;;;;5092764;28;20275;-71
2023/09/26 11:48:47;;;;;;;2.80;2.60;;;25.90;1.00;;;;;;5094549;28;20175;-72
2023/09/26 11:51:13;;;;;;;3.38;2.63;;;25.70;1.00;;;;;;5093484;28;20167;-72
2023/09/26 11:53:40;;;;;;;4.65;2.53;;;25.90;1.00;;;;;;5091245;28;20235;-71
2023/09/26 11:56:07;;;;;;;3.42;2.67;;;25.80;1.00;;;;;;5072993;28;20176;-72
2023/09/26 11:58:34;;;;;;;2.28;2.08;;;25.30;1.00;;;;;;5072754;28;20190;-72
2023/09/26 12:01:00;;;;;;;2.80;1.98;;;25.20;1.00;;;;;;5072750;28;20160;-73
2023/09/26 12:03:26;;;;;;;4.53;2.65;;;24.70;1.00;;;;;;5073533;28;20184;-71
2023/09/26 12:05:52;;;;;;;4.32;2.70;;;25.00;99.90;;;;;;5073617;28;20215;-71
2023/09/26 12:08:17;;;;;;;2.78;2.35;;;25.80;1.00;;;;;;5074362;28;20176;-70
2023/09/26 12:10:44;;;;;;;4.85;2.47;;;25.90;99.90;;;;;;5073092;28;20168;-71
2023/09/26 12:13:10;;;;;;;5.80;2.53;;;26.20;32.00;;;;;;5073873;28;20176;-71
2023/09/26 12:15:36;;;;;;;3.47;2.17;;;26.20;1.00;;;;;;5074406;28;20180;-71
2023/09/26 12:18:02;;;;;;;3.65;2.05;;;26.40;1.00;;;;;;5072671;28;20191;-72
2023/09/26 12:20:29;;;;;;;5.50;2.40;;;26.40;99.90;;;;;;5074265;28;20303;-72
2023/09/26 12:22:56;;;;;;;2.63;2.40;;;26.00;1.00;;;;;;5073918;28;20185;-73
2023/09/26 12:25:24;;;;;;;3.05;2.65;;;25.90;99.90;;;;;;5074475;28;20270;-71
2023/09/26 12:27:52;;;;;;;6.60;2.97;;;25.20;1.00;;;;;;5073732;28;20252;-72
2023/09/26 12:30:19;;;;;;;3.03;2.70;;;24.90;1.00;;;;;;5073593;28;20185;-73
2023/09/26 12:32:45;;;;;;;5.15;2.90;;;25.10;99.90;;;;;;5073979;28;20176;-72
2023/09/26 12:35:11;;;;;;;3.33;2.60;;;25.10;99.90;;;;;;5074029;28;20231;-72
2023/09/26 12:37:37;;;;;;;3.15;2.85;;;25.50;99.90;;;;;;5073340;28;20169;-71
2023/09/26 12:40:13;;;;;;;7.00;3.50;;;25.80;99.90;;;;;;5073921;28;20179;-71